Time;durP1;ratioP1;P1;durP2;ratioP2;P2;SDS_P1;SDS_P2;PMS_P1;PMS_P2;Temp;Humidity;BMP_temperature;BMP_pressure;BME280_temperature;BME280_humidity;BME280_pressure;Samples;Min_cycle;Max_cycle;Signal;HPM_P1;HPM_P2
2022/04/22 00:04:03;;;;;;;12.73;5.35;;;;;;;12.05;66.20;101106.56;10476760;28;20066;-61
2022/04/22 00:09:25;;;;;;;13.35;5.97;;;;;;;12.02;66.52;101101.53;10477254;28;20478;-61
2022/04/22 00:14:46;;;;;;;13.52;5.70;;;;;;;11.97;66.74;101091.38;10472094;28;20045;-60
2022/04/22 00:20:11;;;;;;;13.77;5.30;;;;;;;11.93;66.70;101079.47;10475950;28;20048;-61
2022/04/22 00:25:32;;;;;;;15.50;5.22;;;;;;;11.88;67.03;101084.13;10479256;28;20052;-60
2022/04/22 00:30:54;;;;;;;9.68;5.28;;;;;;;11.74;67.23;101075.53;10469788;28;20049;-60
2022/04/22 00:36:16;;;;;;;11.65;5.45;;;;;;;11.65;66.86;101076.13;10477750;28;20149;-60
2022/04/22 00:41:38;;;;;;;13.40;6.22;;;;;;;11.60;66.97;101073.00;10473831;28;20585;-61
2022/04/22 00:46:59;;;;;;;12.00;4.60;;;;;;;11.63;66.59;101072.81;10483141;28;20045;-63
2022/04/22 00:52:21;;;;;;;7.78;4.55;;;;;;;11.62;67.08;101064.13;10445853;28;20506;-62
2022/04/22 00:57:43;;;;;;;7.82;4.32;;;;;;;11.51;66.39;101058.72;10484344;28;20049;-60
2022/04/22 01:03:08;;;;;;;8.00;4.25;;;;;;;11.51;66.04;101063.09;10492230;28;20059;-60
2022/04/22 01:14:11;;;;;;;8.10;3.58;;;;;;;11.46;65.39;101051.28;10476752;28;20302;-60
2022/04/22 01:19:33;;;;;;;9.57;3.80;;;;;;;11.44;65.25;101048.78;10436879;28;20072;-59
2022/04/22 01:25:03;;;;;;;8.52;3.72;;;;;;;11.46;66.99;101046.91;10494781;28;20052;-60
2022/04/22 01:30:24;;;;;;;7.13;3.40;;;;;;;11.30;64.37;101041.00;10475886;28;20040;-60
2022/04/22 01:35:46;;;;;;;6.47;3.17;;;;;;;11.26;65.47;101041.31;10459641;28;20084;-60
2022/04/22 01:41:08;;;;;;;9.43;2.95;;;;;;;11.15;64.62;101049.81;10472458;28;20059;-60
2022/04/22 01:46:29;;;;;;;6.93;3.33;;;;;;;11.03;66.46;101047.97;10472297;28;20048;-60
2022/04/22 01:51:54;;;;;;;4.97;2.92;;;;;;;10.94;65.88;101039.88;10472097;28;20045;-61
2022/04/22 01:57:15;;;;;;;6.07;3.17;;;;;;;10.83;66.43;101032.72;10468806;28;20044;-61
2022/04/22 02:02:37;;;;;;;8.55;3.30;;;;;;;10.82;65.32;101025.81;10468929;28;20052;-60
2022/04/22 02:07:59;;;;;;;6.22;3.28;;;;;;;10.73;65.59;101025.56;10473277;28;20131;-60
2022/04/22 02:13:21;;;;;;;8.00;3.38;;;;;;;10.64;66.77;101024.34;10469266;28;20072;-61
2022/04/22 02:18:43;;;;;;;7.35;3.33;;;;;;;10.46;66.37;101027.25;10460467;28;20059;-61
2022/04/22 02:24:05;;;;;;;6.30;3.30;;;;;;;10.37;67.21;101021.75;10480199;28;20057;-60
2022/04/22 02:29:26;;;;;;;7.70;3.45;;;;;;;10.25;67.87;101020.75;10474861;28;20041;-60
2022/04/22 02:34:48;;;;;;;10.00;3.83;;;;;;;10.17;67.14;101014.31;10468610;28;20048;-59
2022/04/22 02:40:10;;;;;;;9.80;3.22;;;;;;;10.11;67.61;101009.47;10489484;28;20052;-60
2022/04/22 02:45:32;;;;;;;5.70;3.70;;;;;;;10.00;67.84;101011.88;10466846;28;20049;-60
2022/04/22 02:50:54;;;;;;;4.63;3.33;;;;;;;9.91;68.10;101013.22;10462119;28;20048;-59
2022/04/22 02:56:18;;;;;;;7.45;3.30;;;;;;;9.84;68.12;101008.47;10467592;28;20655;-59
2022/04/22 03:01:43;;;;;;;7.82;3.50;;;;;;;9.77;68.25;101002.78;10506522;28;20210;-60
2022/04/22 03:07:04;;;;;;;9.82;3.70;;;;;;;9.73;69.32;100992.66;10482491;28;20076;-59
2022/04/22 03:12:26;;;;;;;7.13;3.35;;;;;;;9.67;68.83;100990.38;10459410;28;20048;-60
2022/04/22 03:17:49;;;;;;;6.82;3.97;;;;;;;9.60;70.53;100986.47;10480744;28;20055;-60
2022/04/22 03:23:10;;;;;;;9.82;4.15;;;;;;;9.51;70.28;100992.19;10495808;28;20048;-62
2022/04/22 03:28:32;;;;;;;10.18;4.15;;;;;;;9.48;69.46;100984.56;10465368;28;20056;-61
2022/04/22 03:33:54;;;;;;;5.85;3.75;;;;;;;9.36;69.80;100985.25;10481277;28;20052;-59
2022/04/22 03:39:15;;;;;;;10.15;4.32;;;;;;;9.32;70.02;100978.56;10463309;28;20481;-59
2022/04/22 03:44:37;;;;;;;7.13;3.80;;;;;;;9.17;70.01;100976.00;10451746;28;20059;-62
2022/04/22 03:50:00;;;;;;;12.88;4.72;;;;;;;9.13;71.15;100964.09;10463264;28;20044;-62
2022/04/22 03:55:21;;;;;;;7.68;4.80;;;;;;;9.03;70.98;100970.72;10481858;28;20135;-60
2022/04/22 04:00:48;;;;;;;8.35;4.15;;;;;;;8.93;71.55;100962.59;10478618;28;20351;-60
2022/04/22 04:06:10;;;;;;;11.82;4.88;;;;;;;8.82;72.03;100969.31;10481645;28;20048;-59
2022/04/22 04:17:14;;;;;;;15.75;4.57;;;;;;;8.64;73.17;100978.97;10472405;28;20052;-60
2022/04/22 04:28:17;;;;;;;10.68;4.55;;;;;;;8.59;72.62;100984.50;10479971;28;20041;-60
2022/04/22 04:33:40;;;;;;;10.25;4.80;;;;;;;8.58;73.22;100969.84;10491424;28;20080;-61
2022/04/22 04:39:07;;;;;;;7.22;4.22;;;;;;;8.58;72.86;100977.63;10491605;28;20052;-60
2022/04/22 04:44:28;;;;;;;6.63;3.90;;;;;;;8.54;71.67;100978.69;10475958;28;20057;-60
2022/04/22 04:49:50;;;;;;;10.45;4.28;;;;;;;8.57;72.22;100968.97;10488603;28;20048;-60
2022/04/22 04:55:15;;;;;;;10.05;4.18;;;;;;;8.52;73.29;100970.97;10492526;28;20049;-60
2022/04/22 05:00:37;;;;;;;11.00;4.18;;;;;;;8.51;74.08;100969.31;10469571;28;20052;-60
2022/04/22 05:05:58;;;;;;;7.45;3.85;;;;;;;8.44;73.49;100978.34;10478672;28;20049;-60
2022/04/22 05:11:20;;;;;;;8.23;3.92;;;;;;;8.48;73.44;100974.69;10486567;28;20044;-61
2022/04/22 05:16:42;;;;;;;8.98;3.80;;;;;;;8.52;73.64;100975.34;10470983;28;20045;-60
2022/04/22 05:22:04;;;;;;;7.35;4.18;;;;;;;8.53;73.02;100966.63;10491653;28;20059;-60
2022/04/22 05:27:26;;;;;;;11.15;3.42;;;;;;;8.55;72.49;100970.00;10480778;28;20040;-61
2022/04/22 05:32:48;;;;;;;12.05;4.38;;;;;;;8.56;72.85;100971.66;10481396;28;20056;-64
2022/04/22 05:38:10;;;;;;;8.05;3.47;;;;;;;8.57;73.01;100973.34;10440599;28;20041;-61
2022/04/22 05:43:31;;;;;;;7.35;3.38;;;;;;;8.62;72.55;100979.97;10480962;28;20053;-58
2022/04/22 05:48:53;;;;;;;8.77;3.75;;;;;;;8.59;73.44;100971.50;10491322;28;20385;-60
2022/04/22 05:54:15;;;;;;;6.40;3.22;;;;;;;8.66;73.10;100969.31;10490438;28;20052;-61
2022/04/22 05:59:36;;;;;;;9.73;3.58;;;;;;;8.73;72.74;100975.84;10473609;28;20041;-61
2022/04/22 06:04:58;;;;;;;11.75;3.45;;;;;;;8.79;73.88;100952.13;10476982;28;20405;-60
2022/04/22 06:10:32;;;;;;;7.97;3.88;;;;;;;8.88;73.09;100954.22;10484089;28;20037;-61
2022/04/22 06:15:53;;;;;;;6.95;3.08;;;;;;;8.94;73.30;100951.28;10476367;28;20438;-60
2022/04/22 06:21:15;;;;;;;10.25;3.97;;;;;;;9.10;71.65;100933.03;10469563;28;20044;-61
2022/04/22 06:26:38;;;;;;;10.70;3.75;;;;;;;9.26;72.93;100939.91;10476005;28;20067;-60
2022/04/22 06:32:00;;;;;;;10.60;3.72;;;;;;;9.40;73.27;100946.91;10498084;28;20070;-59
2022/04/22 06:37:22;;;;;;;8.93;3.55;;;;;;;9.56;71.32;100943.34;10455185;28;20390;-60
2022/04/22 06:48:30;;;;;;;8.23;3.60;;;;;;;9.98;73.11;100935.56;10464935;28;20151;-61
2022/04/22 06:54:08;;;;;;;7.20;3.70;;;;;;;10.17;70.76;100920.53;10475173;28;20101;-61
2022/04/22 06:59:31;;;;;;;12.98;3.85;;;;;;;10.35;70.05;100908.97;10478534;28;20056;-59
2022/04/22 07:04:54;;;;;;;7.93;3.75;;;;;;;10.52;67.53;100911.34;10472311;28;20052;-61
2022/04/22 07:10:16;;;;;;;8.48;3.53;;;;;;;10.73;68.37;100914.28;10475179;28;20131;-61
2022/04/22 07:15:39;;;;;;;9.98;3.55;;;;;;;10.75;68.61;100908.97;10468378;28;20048;-61
2022/04/22 07:21:01;;;;;;;10.27;3.50;;;;;;;10.84;66.97;100911.00;10476109;28;20051;-60
2022/04/22 07:26:25;;;;;;;6.90;3.58;;;;;;;11.05;67.05;100910.47;10481311;28;20148;-61
2022/04/22 07:31:47;;;;;;;7.97;3.65;;;;;;;11.12;68.04;100903.88;10485661;28;20132;-60
2022/04/22 07:37:09;;;;;;;6.45;3.47;;;;;;;11.21;65.88;100898.06;10474600;28;20501;-60
2022/04/22 07:42:33;;;;;;;6.30;3.50;;;;;;;11.28;66.37;100888.91;10460712;28;20059;-60
2022/04/22 07:47:55;;;;;;;8.30;3.50;;;;;;;11.35;66.13;100895.41;10481048;28;20056;-61
2022/04/22 07:53:18;;;;;;;6.82;3.63;;;;;;;11.40;66.15;100888.06;10486941;28;20075;-61
2022/04/22 07:58:39;;;;;;;6.63;3.45;;;;;;;11.43;66.30;100898.31;10494104;28;20058;-61
2022/04/22 08:04:03;;;;;;;8.68;3.40;;;;;;;11.43;65.97;100898.31;10481611;28;20049;-64
2022/04/22 08:09:25;;;;;;;8.13;3.35;;;;;;;11.53;65.37;100888.94;10492127;28;20051;-59
2022/04/22 08:14:47;;;;;;;7.32;3.50;;;;;;;11.66;65.53;100889.78;10476462;28;20055;-61
2022/04/22 08:20:10;;;;;;;13.93;3.50;;;;;;;11.87;65.79;100888.34;10481478;28;20463;-61
2022/04/22 08:25:32;;;;;;;6.97;3.30;;;;;;;11.97;64.11;100892.84;10467556;28;20074;-61
2022/04/22 08:30:53;;;;;;;7.03;3.30;;;;;;;12.05;65.53;100892.31;10478231;28;20048;-64
2022/04/22 08:36:15;;;;;;;6.32;3.63;;;;;;;12.13;64.81;100884.75;10480163;28;20060;-61
2022/04/22 08:41:37;;;;;;;12.32;3.67;;;;;;;12.28;63.74;100879.28;10480194;28;20045;-61
2022/04/22 08:52:42;;;;;;;7.43;3.30;;;;;;;12.59;64.68;100874.38;10480137;28;20061;-61
2022/04/22 08:58:05;;;;;;;13.18;3.92;;;;;;;12.73;63.34;100876.84;10476396;28;20045;-60
2022/04/22 09:03:28;;;;;;;11.00;3.95;;;;;;;12.90;63.71;100879.09;10472575;28;20440;-61
2022/04/22 09:08:50;;;;;;;8.27;4.10;;;;;;;13.10;62.84;100886.28;10503399;28;20230;-61
2022/04/22 09:14:14;;;;;;;8.30;3.60;;;;;;;13.23;62.84;100875.75;10477379;28;20515;-60
2022/04/22 09:19:36;;;;;;;4.90;3.10;;;;;;;13.38;62.16;100864.13;10488983;28;20156;-61
2022/04/22 09:24:59;;;;;;;11.93;4.15;;;;;;;13.56;61.73;100853.94;10478333;28;20052;-63
2022/04/22 09:30:25;;;;;;;10.15;4.20;;;;;;;13.75;62.30;100858.59;10476866;28;20056;-61
2022/04/22 09:47:27;;;;;;;6.95;4.30;;;;;;;14.27;61.39;100836.09;10483515;28;20053;-62
2022/04/22 09:52:49;;;;;;;6.63;3.72;;;;;;;14.40;61.24;100830.72;10470117;28;20049;-60
2022/04/22 09:58:10;;;;;;;15.82;4.20;;;;;;;14.56;60.95;100821.47;10489452;28;20044;-62
2022/04/22 10:03:34;;;;;;;6.00;3.45;;;;;;;14.71;60.11;100807.94;10474767;28;20052;-67
2022/04/22 10:08:56;;;;;;;8.30;4.00;;;;;;;14.95;59.92;100808.56;10475173;28;20481;-61
2022/04/22 10:14:26;;;;;;;8.70;3.90;;;;;;;15.21;59.65;100812.47;10487190;28;20048;-61
2022/04/22 10:19:49;;;;;;;9.30;4.00;;;;;;;15.36;59.28;100813.00;10476599;28;20079;-61
2022/04/22 10:25:10;;;;;;;7.85;3.70;;;;;;;15.52;58.95;100804.50;10477387;28;20499;-62
2022/04/22 10:30:33;;;;;;;9.73;4.32;;;;;;;15.74;59.18;100816.66;10473236;28;20079;-60
2022/04/22 10:35:59;;;;;;;9.73;3.83;;;;;;;15.93;59.20;100803.59;10471086;28;20559;-60
2022/04/22 10:41:22;;;;;;;6.97;4.18;;;;;;;16.04;58.80;100795.59;10474544;28;20037;-61
2022/04/22 10:52:29;;;;;;;6.55;3.88;;;;;;;16.28;58.27;100788.19;10501346;28;20052;-61
2022/04/22 10:58:13;;;;;;;9.32;4.50;;;;;;;16.50;58.30;100784.38;10485757;28;20527;-61
2022/04/22 11:03:35;;;;;;;8.75;4.07;;;;;;;16.75;58.19;100775.09;10475283;28;20044;-60
2022/04/22 11:09:02;;;;;;;6.18;3.80;;;;;;;17.00;57.88;100767.47;10493572;28;20043;-61
2022/04/22 11:14:31;;;;;;;8.93;4.20;;;;;;;17.13;55.91;100764.50;10485987;28;20059;-61
2022/04/22 11:19:59;;;;;;;9.85;4.35;;;;;;;17.31;56.85;100766.31;10473347;28;20052;-60
2022/04/22 11:25:26;;;;;;;8.85;4.07;;;;;;;17.47;56.69;100766.50;10475451;28;20639;-61
2022/04/22 11:30:49;;;;;;;9.73;3.83;;;;;;;17.66;56.20;100755.91;10482504;28;20484;-61
2022/04/22 11:36:11;;;;;;;8.95;3.80;;;;;;;17.68;57.55;100753.97;10477853;28;20056;-61
2022/04/22 11:41:32;;;;;;;10.77;4.00;;;;;;;17.95;56.79;100756.59;10485490;28;20064;-60
2022/04/22 11:46:54;;;;;;;8.60;3.70;;;;;;;18.26;55.94;100765.88;10494536;28;20131;-61
2022/04/22 11:52:16;;;;;;;11.43;3.92;;;;;;;18.70;55.55;100758.72;10488758;28;20059;-61
2022/04/22 11:57:39;;;;;;;5.53;3.45;;;;;;;18.88;54.14;100759.56;10488409;28;20059;-60
2022/04/22 12:08:51;;;;;;;8.15;3.78;;;;;;;18.60;51.55;100751.88;10471511;28;20055;-61
2022/04/22 12:14:25;;;;;;;8.30;4.05;;;;;;;18.93;51.95;100751.97;10485152;28;20059;-61
2022/04/22 12:19:47;;;;;;;7.60;3.80;;;;;;;19.14;55.50;100741.94;10478176;28;20048;-62
2022/04/22 12:25:14;;;;;;;11.57;3.83;;;;;;;19.17;53.01;100743.44;10485181;28;20489;-62
2022/04/22 12:30:38;;;;;;;10.25;3.92;;;;;;;19.42;54.94;100738.13;10472595;28;20049;-62
2022/04/22 12:36:01;;;;;;;8.23;3.45;;;;;;;19.55;55.04;100735.88;10474548;28;20056;-62
2022/04/22 12:41:23;;;;;;;6.25;3.65;;;;;;;19.54;55.95;100726.28;10485624;28;20614;-62
2022/04/22 12:52:28;;;;;;;12.32;3.20;;;;;;;19.33;57.05;100723.22;10474987;28;20036;-62
2022/04/22 12:58:00;;;;;;;11.43;3.50;;;;;;;18.92;51.31;100708.03;10493287;28;20059;-61
2022/04/22 13:03:22;;;;;;;15.13;3.00;;;;;;;19.28;56.84;100709.63;10483635;28;20480;-62
2022/04/22 13:08:43;;;;;;;4.90;2.75;;;;;;;19.45;56.50;100706.91;10474566;28;20048;-61
2022/04/22 13:14:06;;;;;;;8.93;3.05;;;;;;;19.52;56.49;100710.59;10477756;28;20485;-61
2022/04/22 13:19:28;;;;;;;14.85;3.80;;;;;;;19.39;56.91;100706.72;10495305;28;20059;-62
2022/04/22 13:24:50;;;;;;;6.03;3.00;;;;;;;19.54;56.36;100702.50;10465946;28;20075;-62
2022/04/22 13:30:14;;;;;;;12.23;3.35;;;;;;;19.70;57.13;100699.91;10474690;28;20044;-61
2022/04/22 13:35:37;;;;;;;9.02;3.67;;;;;;;19.97;57.43;100697.06;10465343;28;20048;-62
2022/04/22 13:41:00;;;;;;;7.05;3.30;;;;;;;19.93;57.90;100706.28;10476793;28;20056;-62
2022/04/22 13:52:21;;;;;;;8.70;3.25;;;;;;;19.37;58.04;100692.00;10470465;28;20044;-61
2022/04/22 13:57:42;;;;;;;6.07;2.85;;;;;;;19.47;56.85;100698.84;10471437;28;20052;-61
2022/04/22 14:03:04;;;;;;;7.20;3.20;;;;;;;19.40;56.48;100687.22;10500365;28;20036;-62
2022/04/22 14:08:26;;;;;;;6.75;2.90;;;;;;;19.44;55.92;100678.00;10498889;28;20252;-61
2022/04/22 14:13:48;;;;;;;4.22;2.90;;;;;;;19.52;57.46;100686.78;10479773;28;20059;-61
2022/04/22 14:19:09;;;;;;;7.28;2.72;;;;;;;19.25;57.51;100680.88;10473120;28;20049;-61
2022/04/22 14:24:31;;;;;;;4.63;2.45;;;;;;;18.96;57.45;100684.81;10487173;28;20045;-61
2022/04/22 14:29:54;;;;;;;3.13;1.77;;;;;;;18.78;56.77;100678.72;10475846;28;20124;-61
2022/04/22 14:35:16;;;;;;;2.67;2.30;;;;;;;18.87;56.80;100678.63;10454126;28;20053;-60
2022/04/22 14:40:37;;;;;;;9.38;1.85;;;;;;;19.19;56.21;100673.59;10462229;28;20043;-61
2022/04/22 14:45:59;;;;;;;5.20;2.00;;;;;;;19.32;55.73;100676.63;10459498;28;20079;-60
2022/04/22 14:51:21;;;;;;;5.00;1.80;;;;;;;19.30;55.79;100660.09;10471290;28;20040;-61
2022/04/22 14:56:43;;;;;;;3.53;1.58;;;;;;;19.42;54.88;100664.09;10480054;28;20074;-62
2022/04/22 15:02:07;;;;;;;3.08;1.38;;;;;;;19.42;55.17;100666.75;10460508;28;20406;-62
2022/04/22 15:07:32;;;;;;;4.00;1.45;;;;;;;19.14;53.40;100665.28;10438715;28;20553;-61
2022/04/22 15:12:54;;;;;;;2.30;1.40;;;;;;;18.86;55.64;100673.50;10453209;28;20056;-61
2022/04/22 15:24:17;;;;;;;3.05;1.50;;;;;;;18.51;56.14;100669.09;10456940;28;20063;-61
2022/04/22 15:29:40;;;;;;;6.75;1.95;;;;;;;18.92;55.62;100670.25;10441746;28;20521;-60
2022/04/22 15:35:03;;;;;;;7.70;1.85;;;;;;;19.03;55.08;100672.59;10449044;28;20303;-61
2022/04/22 15:40:24;;;;;;;6.07;1.83;;;;;;;18.73;55.75;100668.63;10427941;28;20045;-62
2022/04/22 15:45:46;;;;;;;4.70;1.98;;;;;;;18.51;56.37;100671.75;10466215;28;20063;-61
2022/04/22 15:51:09;;;;;;;5.25;1.95;;;;;;;18.47;56.35;100670.41;10452340;28;20043;-61
2022/04/22 15:56:34;;;;;;;2.90;1.52;;;;;;;18.58;55.78;100667.53;10443942;28;20175;-61
2022/04/22 16:01:55;;;;;;;6.27;2.00;;;;;;;18.59;55.84;100663.91;10457044;28;20049;-61
2022/04/22 16:07:17;;;;;;;3.78;1.80;;;;;;;18.41;55.55;100670.19;10447396;28;20056;-61
2022/04/22 16:18:22;;;;;;;7.75;2.20;;;;;;;18.21;55.85;100686.28;10464231;28;20053;-59
2022/04/22 16:23:43;;;;;;;6.13;2.33;;;;;;;18.13;55.39;100675.66;10438871;28;20055;-60
2022/04/22 16:29:06;;;;;;;6.90;2.00;;;;;;;18.07;55.60;100681.53;10440620;28;20045;-61
2022/04/22 16:34:27;;;;;;;4.45;2.20;;;;;;;18.10;55.28;100676.81;10453604;28;20164;-62
2022/04/22 16:39:49;;;;;;;5.30;2.15;;;;;;;18.09;56.07;100684.84;10447107;28;20632;-60
2022/04/22 16:45:12;;;;;;;4.57;2.20;;;;;;;17.88;55.53;100684.31;10459925;28;20048;-61
2022/04/22 16:50:34;;;;;;;5.28;2.25;;;;;;;17.75;56.07;100687.31;10427023;28;20061;-61
2022/04/22 16:55:56;;;;;;;3.83;2.10;;;;;;;17.64;56.21;100689.31;10444095;28;20064;-61
2022/04/22 17:01:18;;;;;;;6.22;2.30;;;;;;;17.55;56.60;100690.19;10429886;28;20441;-60
2022/04/22 17:06:41;;;;;;;9.13;2.63;;;;;;;17.44;56.53;100693.03;10445392;28;20376;-60
2022/04/22 17:12:04;;;;;;;5.22;2.50;;;;;;;17.36;56.58;100697.38;10453654;28;20128;-60
2022/04/22 17:23:06;;;;;;;6.40;2.65;;;;;;;17.24;56.84;100699.31;10470395;28;20519;-61
2022/04/22 17:28:28;;;;;;;5.32;3.03;;;;;;;17.17;57.11;100705.28;10443886;28;20519;-60
2022/04/22 17:33:50;;;;;;;6.22;3.22;;;;;;;17.11;57.41;100706.69;10457250;28;20493;-61
2022/04/22 17:39:11;;;;;;;8.38;2.80;;;;;;;16.96;57.05;100708.13;10457630;28;20037;-60
2022/04/22 17:44:33;;;;;;;5.72;3.08;;;;;;;16.95;57.51;100701.19;10450418;28;20807;-61
2022/04/22 17:49:56;;;;;;;8.23;3.03;;;;;;;16.87;57.79;100698.47;10438913;28;20048;-61
2022/04/22 17:55:20;;;;;;;8.32;3.05;;;;;;;16.79;57.85;100700.94;10463806;28;20053;-62
2022/04/22 18:00:42;;;;;;;11.18;3.60;;;;;;;16.76;57.83;100700.41;10479962;28;20055;-61
2022/04/22 18:06:04;;;;;;;9.18;3.25;;;;;;;16.69;57.99;100700.13;10462155;28;20045;-62
2022/04/22 18:11:25;;;;;;;7.72;2.90;;;;;;;16.67;57.96;100702.06;10451813;28;20140;-62
2022/04/22 18:16:47;;;;;;;8.20;3.13;;;;;;;16.62;58.26;100704.28;10470377;28;20053;-62
2022/04/22 18:22:10;;;;;;;8.93;2.92;;;;;;;16.59;58.18;100703.75;10437154;28;20037;-61
2022/04/22 18:27:31;;;;;;;10.98;3.53;;;;;;;16.52;58.07;100719.25;10464180;28;20045;-62
2022/04/22 18:32:53;;;;;;;8.00;3.17;;;;;;;16.46;58.17;100725.06;10447957;28;20189;-61
2022/04/22 18:38:15;;;;;;;9.45;3.60;;;;;;;16.43;58.18;100720.09;10449405;28;20625;-61
2022/04/22 18:43:37;;;;;;;8.10;3.25;;;;;;;16.37;58.44;100725.09;10451102;28;20118;-61
2022/04/22 18:48:58;;;;;;;11.52;3.67;;;;;;;16.33;58.55;100720.22;10445924;28;20460;-62
2022/04/22 18:54:21;;;;;;;9.80;3.80;;;;;;;16.26;58.54;100727.00;10470945;28;20053;-62
2022/04/22 18:59:43;;;;;;;6.82;3.10;;;;;;;16.23;58.68;100729.88;10469706;28;20059;-61
2022/04/22 19:05:07;;;;;;;10.15;3.50;;;;;;;16.20;58.74;100727.53;10458725;28;20047;-61
2022/04/22 19:10:28;;;;;;;9.63;3.17;;;;;;;16.17;59.06;100730.41;10455722;28;20055;-61
2022/04/22 19:15:51;;;;;;;6.53;3.28;;;;;;;16.16;58.83;100732.22;10461980;28;20410;-62
2022/04/22 19:21:13;;;;;;;9.30;3.15;;;;;;;16.14;58.74;100730.72;10445522;28;20618;-61
2022/04/22 19:26:34;;;;;;;8.07;3.28;;;;;;;16.11;58.96;100733.59;10469353;28;20482;-62
2022/04/22 19:31:56;;;;;;;7.40;3.40;;;;;;;16.04;59.00;100733.31;10474211;28;20049;-61
2022/04/22 19:42:59;;;;;;;9.77;3.42;;;;;;;16.05;59.09;100739.41;10453138;28;20041;-61
2022/04/22 19:48:21;;;;;;;8.50;3.40;;;;;;;15.96;58.92;100735.78;10453604;28;20060;-61
2022/04/22 19:53:43;;;;;;;10.13;3.53;;;;;;;15.89;59.25;100733.81;10440209;28;20047;-61
2022/04/22 19:59:06;;;;;;;8.20;3.35;;;;;;;15.89;58.97;100746.97;10440884;28;20128;-61
2022/04/22 20:04:28;;;;;;;9.38;3.20;;;;;;;15.78;59.35;100742.69;10438305;28;20060;-62
2022/04/22 20:09:50;;;;;;;6.78;3.45;;;;;;;15.73;59.23;100733.50;10437780;28;21338;-61
2022/04/22 20:15:11;;;;;;;7.07;3.55;;;;;;;15.66;59.48;100748.16;10460808;28;20056;-61
2022/04/22 20:20:33;;;;;;;10.90;3.58;;;;;;;15.55;60.10;100750.88;10486445;28;20051;-62
2022/04/22 20:25:56;;;;;;;8.27;3.67;;;;;;;15.46;60.06;100756.91;10493021;28;20064;-61
2022/04/22 20:31:20;;;;;;;11.88;3.53;;;;;;;15.47;60.05;100759.44;10479476;28;20045;-61
2022/04/22 20:42:22;;;;;;;11.85;3.88;;;;;;;15.37;60.38;100772.63;10489071;28;20056;-62
2022/04/22 20:47:44;;;;;;;7.40;3.88;;;;;;;15.31;60.54;100783.66;10441784;28;20049;-61
2022/04/22 20:58:47;;;;;;;6.57;3.60;;;;;;;15.16;60.65;100780.50;10457679;28;20060;-62
2022/04/22 21:04:08;;;;;;;8.85;4.63;;;;;;;15.18;60.92;100783.81;10493104;28;20049;-61
2022/04/22 21:09:30;;;;;;;11.23;4.75;;;;;;;15.12;60.86;100800.13;10477570;28;20049;-61
2022/04/22 21:14:52;;;;;;;9.35;4.78;;;;;;;15.13;60.88;100791.28;10436728;28;20386;-62
2022/04/22 21:20:13;;;;;;;8.50;4.35;;;;;;;15.13;60.85;100791.28;10490853;28;20053;-60
2022/04/22 21:25:35;;;;;;;8.43;4.10;;;;;;;15.09;61.41;100804.75;10470492;28;20041;-61
2022/04/22 21:30:58;;;;;;;8.60;4.45;;;;;;;15.04;62.03;100810.41;10480434;28;20075;-62
2022/04/22 21:36:19;;;;;;;11.80;4.32;;;;;;;15.01;61.68;100815.91;10483718;28;20416;-62
2022/04/22 21:41:41;;;;;;;6.95;4.30;;;;;;;14.95;61.82;100819.06;10473737;28;20749;-60
2022/04/22 21:47:03;;;;;;;9.73;4.60;;;;;;;14.88;62.10;100817.88;10436541;28;20525;-62
2022/04/22 21:52:25;;;;;;;8.20;4.72;;;;;;;14.77;62.37;100820.56;10452379;28;20045;-61
2022/04/22 21:57:47;;;;;;;8.48;4.20;;;;;;;14.71;62.23;100821.06;10490952;28;20655;-61
2022/04/22 22:03:08;;;;;;;9.02;4.43;;;;;;;14.70;62.09;100819.38;10461286;28;20515;-61
2022/04/22 22:08:30;;;;;;;9.80;4.93;;;;;;;14.63;62.22;100823.47;10461218;28;20053;-61
2022/04/22 22:13:52;;;;;;;11.57;4.78;;;;;;;14.63;62.58;100822.63;10479648;28;20051;-61
2022/04/22 22:19:13;;;;;;;9.10;5.10;;;;;;;14.53;62.79;100824.34;10484954;28;20405;-61
2022/04/22 22:24:35;;;;;;;7.63;4.95;;;;;;;14.46;63.11;100815.31;10475134;28;20048;-61
2022/04/22 22:29:58;;;;;;;15.88;5.40;;;;;;;14.50;63.30;100820.19;10475907;28;20076;-61
2022/04/22 22:35:20;;;;;;;11.68;4.82;;;;;;;14.41;63.32;100812.22;10473083;28;20059;-61
2022/04/22 22:40:43;;;;;;;12.65;5.40;;;;;;;14.34;63.88;100810.22;10475604;28;20052;-61
2022/04/22 22:46:05;;;;;;;12.77;5.40;;;;;;;14.21;63.42;100805.09;10470486;28;20128;-61
2022/04/22 22:51:27;;;;;;;12.85;5.32;;;;;;;14.13;63.68;100801.41;10473927;28;20139;-61
2022/04/22 22:56:48;;;;;;;8.57;5.20;;;;;;;14.09;64.02;100807.84;10479266;28;20053;-61
2022/04/22 23:02:10;;;;;;;8.55;5.22;;;;;;;14.03;63.73;100805.69;10468425;28;20052;-61
2022/04/22 23:07:32;;;;;;;9.43;5.95;;;;;;;13.94;63.55;100807.25;10433649;28;20053;-61
2022/04/22 23:12:54;;;;;;;8.20;5.90;;;;;;;13.90;64.11;100805.00;10485023;28;20481;-61
2022/04/22 23:18:15;;;;;;;11.82;5.72;;;;;;;13.81;64.86;100811.78;10488028;28;20060;-61
2022/04/22 23:23:38;;;;;;;11.00;5.80;;;;;;;13.74;64.16;100810.63;10496945;28;20047;-61
2022/04/22 23:29:00;;;;;;;11.07;5.90;;;;;;;13.67;65.14;100811.22;10478575;28;20048;-61
2022/04/22 23:34:21;;;;;;;11.85;6.18;;;;;;;13.67;64.67;100803.34;10476574;28;20059;-61
2022/04/22 23:39:43;;;;;;;9.15;5.85;;;;;;;13.60;64.87;100799.53;10481338;28;20049;-61
2022/04/22 23:45:05;;;;;;;8.35;6.13;;;;;;;13.55;65.09;100809.50;10479138;28;20055;-61
2022/04/22 23:50:27;;;;;;;9.43;6.30;;;;;;;13.51;64.66;100808.09;10480344;28;20481;-61
2022/04/22 23:55:48;;;;;;;10.90;6.68;;;;;;;13.37;65.44;100795.25;10485198;28;20086;-60
